sensor_id;sensor_type;location;lat;lon;timestamp;temperature;humidity
33328;DHT22;19692;52.998;9.116;2023-07-31T00:00:32;15.80;99.90
33328;DHT22;19692;52.998;9.116;2023-07-31T00:02:58;15.70;99.90
33328;DHT22;19692;52.998;9.116;2023-07-31T00:05:24;15.70;99.90
33328;DHT22;19692;52.998;9.116;2023-07-31T00:07:49;15.70;99.90
33328;DHT22;19692;52.998;9.116;2023-07-31T00:10:15;15.70;99.90
33328;DHT22;19692;52.998;9.116;2023-07-31T00:12:42;15.70;99.90
33328;DHT22;19692;52.998;9.116;2023-07-31T00:15:12;15.60;99.90
33328;DHT22;19692;52.998;9.116;2023-07-31T00:17:39;15.60;99.90
33328;DHT22;19692;52.998;9.116;2023-07-31T00:20:05;15.70;99.90
33328;DHT22;19692;52.998;9.116;2023-07-31T00:22:31;15.60;99.90
33328;DHT22;19692;52.998;9.116;2023-07-31T00:24:57;15.60;99.90
33328;DHT22;19692;52.998;9.116;2023-07-31T00:27:23;15.50;99.90
33328;DHT22;19692;52.998;9.116;2023-07-31T00:29:51;15.50;99.90
33328;DHT22;19692;52.998;9.116;2023-07-31T00:32:16;15.50;99.90
33328;DHT22;19692;52.998;9.116;2023-07-31T00:34:42;15.50;99.90
33328;DHT22;19692;52.998;9.116;2023-07-31T00:37:08;15.50;99.90
33328;DHT22;19692;52.998;9.116;2023-07-31T00:39:34;15.60;99.90
33328;DHT22;19692;52.998;9.116;2023-07-31T00:42:01;15.60;99.90
33328;DHT22;19692;52.998;9.116;2023-07-31T00:44:27;15.60;99.90
33328;DHT22;19692;52.998;9.116;2023-07-31T00:46:54;15.60;99.90
33328;DHT22;19692;52.998;9.116;2023-07-31T00:49:21;15.60;99.90
33328;DHT22;19692;52.998;9.116;2023-07-31T00:51:47;15.50;99.90
33328;DHT22;19692;52.998;9.116;2023-07-31T00:54:13;15.60;99.90
33328;DHT22;19692;52.998;9.116;2023-07-31T00:56:40;15.50;99.90
33328;DHT22;19692;52.998;9.116;2023-07-31T00:59:06;15.50;99.90
33328;DHT22;19692;52.998;9.116;2023-07-31T01:01:32;15.50;99.90
33328;DHT22;19692;52.998;9.116;2023-07-31T01:03:58;15.50;99.90
33328;DHT22;19692;52.998;9.116;2023-07-31T01:09:43;15.50;99.90
33328;DHT22;19692;52.998;9.116;2023-07-31T01:12:14;15.50;99.90
33328;DHT22;19692;52.998;9.116;2023-07-31T01:14:51;15.60;99.90
33328;DHT22;19692;52.998;9.116;2023-07-31T01:17:26;15.60;99.90
33328;DHT22;19692;52.998;9.116;2023-07-31T01:19:57;15.50;99.90
33328;DHT22;19692;52.998;9.116;2023-07-31T01:22:48;15.50;99.90
33328;DHT22;19692;52.998;9.116;2023-07-31T01:28:33;15.50;99.90
33328;DHT22;19692;52.998;9.116;2023-07-31T01:31:07;15.50;99.90
33328;DHT22;19692;52.998;9.116;2023-07-31T01:33:36;15.60;99.90
33328;DHT22;19692;52.998;9.116;2023-07-31T01:36:03;15.50;99.90
33328;DHT22;19692;52.998;9.116;2023-07-31T01:38:29;15.50;99.90
33328;DHT22;19692;52.998;9.116;2023-07-31T01:40:54;15.50;99.90
33328;DHT22;19692;52.998;9.116;2023-07-31T01:43:23;15.50;99.90
33328;DHT22;19692;52.998;9.116;2023-07-31T01:45:49;15.50;99.90
33328;DHT22;19692;52.998;9.116;2023-07-31T01:48:15;15.50;99.90
33328;DHT22;19692;52.998;9.116;2023-07-31T01:50:41;15.60;99.90
33328;DHT22;19692;52.998;9.116;2023-07-31T01:53:06;15.60;99.90
33328;DHT22;19692;52.998;9.116;2023-07-31T01:55:32;15.60;99.90
33328;DHT22;19692;52.998;9.116;2023-07-31T01:57:58;15.50;99.90
33328;DHT22;19692;52.998;9.116;2023-07-31T02:00:24;15.50;99.90
33328;DHT22;19692;52.998;9.116;2023-07-31T02:02:50;15.50;99.90
33328;DHT22;19692;52.998;9.116;2023-07-31T02:05:15;15.50;99.90
33328;DHT22;19692;52.998;9.116;2023-07-31T02:07:41;15.50;99.90
33328;DHT22;19692;52.998;9.116;2023-07-31T02:10:07;15.50;99.90
33328;DHT22;19692;52.998;9.116;2023-07-31T02:12:33;15.50;99.90
33328;DHT22;19692;52.998;9.116;2023-07-31T02:14:59;15.50;99.90
33328;DHT22;19692;52.998;9.116;2023-07-31T02:17:24;15.50;99.90
33328;DHT22;19692;52.998;9.116;2023-07-31T02:19:50;15.40;99.90
33328;DHT22;19692;52.998;9.116;2023-07-31T02:22:16;15.40;99.90
33328;DHT22;19692;52.998;9.116;2023-07-31T02:24:42;15.40;99.90
33328;DHT22;19692;52.998;9.116;2023-07-31T02:27:07;15.30;99.90
33328;DHT22;19692;52.998;9.116;2023-07-31T02:29:33;15.30;99.90
33328;DHT22;19692;52.998;9.116;2023-07-31T02:31:59;15.30;99.90
33328;DHT22;19692;52.998;9.116;2023-07-31T02:34:25;15.30;99.90
33328;DHT22;19692;52.998;9.116;2023-07-31T02:36:50;15.20;99.90
33328;DHT22;19692;52.998;9.116;2023-07-31T02:39:16;15.20;99.90
33328;DHT22;19692;52.998;9.116;2023-07-31T02:41:42;15.20;99.90
33328;DHT22;19692;52.998;9.116;2023-07-31T02:44:07;15.20;99.90
33328;DHT22;19692;52.998;9.116;2023-07-31T02:46:33;15.10;99.90
33328;DHT22;19692;52.998;9.116;2023-07-31T02:48:59;15.10;99.90
33328;DHT22;19692;52.998;9.116;2023-07-31T02:51:25;15.10;99.90
33328;DHT22;19692;52.998;9.116;2023-07-31T02:53:50;15.10;99.90
33328;DHT22;19692;52.998;9.116;2023-07-31T02:56:16;15.10;99.90
33328;DHT22;19692;52.998;9.116;2023-07-31T02:58:42;15.10;99.90
33328;DHT22;19692;52.998;9.116;2023-07-31T03:01:07;15.10;99.90
33328;DHT22;19692;52.998;9.116;2023-07-31T03:03:34;15.10;99.90
33328;DHT22;19692;52.998;9.116;2023-07-31T03:05:59;15.00;99.90
33328;DHT22;19692;52.998;9.116;2023-07-31T03:08:25;15.00;99.90
33328;DHT22;19692;52.998;9.116;2023-07-31T03:10:51;15.00;99.90
33328;DHT22;19692;52.998;9.116;2023-07-31T03:13:16;15.00;99.90
33328;DHT22;19692;52.998;9.116;2023-07-31T03:15:42;15.00;99.90
33328;DHT22;19692;52.998;9.116;2023-07-31T03:18:09;14.90;99.90
33328;DHT22;19692;52.998;9.116;2023-07-31T03:20:34;14.90;99.90
33328;DHT22;19692;52.998;9.116;2023-07-31T03:23:00;14.90;99.90
33328;DHT22;19692;52.998;9.116;2023-07-31T03:25:26;14.80;99.90
33328;DHT22;19692;52.998;9.116;2023-07-31T03:27:52;14.90;99.90
33328;DHT22;19692;52.998;9.116;2023-07-31T03:30:17;14.80;99.90
33328;DHT22;19692;52.998;9.116;2023-07-31T03:32:43;14.80;99.90
33328;DHT22;19692;52.998;9.116;2023-07-31T03:35:09;14.80;99.90
33328;DHT22;19692;52.998;9.116;2023-07-31T03:37:35;14.90;99.90
33328;DHT22;19692;52.998;9.116;2023-07-31T03:40:00;14.80;99.90
33328;DHT22;19692;52.998;9.116;2023-07-31T03:42:26;14.90;99.90
33328;DHT22;19692;52.998;9.116;2023-07-31T03:44:52;14.90;99.90
33328;DHT22;19692;52.998;9.116;2023-07-31T03:47:17;14.90;99.90
33328;DHT22;19692;52.998;9.116;2023-07-31T03:49:43;14.90;99.90
33328;DHT22;19692;52.998;9.116;2023-07-31T03:52:09;14.90;99.90
33328;DHT22;19692;52.998;9.116;2023-07-31T03:54:35;14.90;99.90
33328;DHT22;19692;52.998;9.116;2023-07-31T03:57:00;14.90;99.90
33328;DHT22;19692;52.998;9.116;2023-07-31T03:59:26;14.90;99.90
33328;DHT22;19692;52.998;9.116;2023-07-31T04:01:52;14.90;99.90
33328;DHT22;19692;52.998;9.116;2023-07-31T04:04:18;15.00;99.90
33328;DHT22;19692;52.998;9.116;2023-07-31T04:06:43;14.90;99.90
33328;DHT22;19692;52.998;9.116;2023-07-31T04:09:09;14.90;99.90
33328;DHT22;19692;52.998;9.116;2023-07-31T04:11:35;14.90;99.90
33328;DHT22;19692;52.998;9.116;2023-07-31T04:14:01;14.90;99.90
33328;DHT22;19692;52.998;9.116;2023-07-31T04:16:26;14.90;99.90
33328;DHT22;19692;52.998;9.116;2023-07-31T04:18:52;14.90;99.90
33328;DHT22;19692;52.998;9.116;2023-07-31T04:21:18;15.00;99.90
33328;DHT22;19692;52.998;9.116;2023-07-31T04:23:44;14.90;99.90
33328;DHT22;19692;52.998;9.116;2023-07-31T04:26:09;14.90;99.90
33328;DHT22;19692;52.998;9.116;2023-07-31T04:28:35;15.00;99.90
33328;DHT22;19692;52.998;9.116;2023-07-31T04:31:01;14.90;99.90
33328;DHT22;19692;52.998;9.116;2023-07-31T04:33:26;15.00;99.90
33328;DHT22;19692;52.998;9.116;2023-07-31T04:35:53;15.00;99.90
33328;DHT22;19692;52.998;9.116;2023-07-31T04:38:20;15.00;99.90
33328;DHT22;19692;52.998;9.116;2023-07-31T04:40:47;15.00;99.90
33328;DHT22;19692;52.998;9.116;2023-07-31T04:43:13;15.00;99.90
33328;DHT22;19692;52.998;9.116;2023-07-31T04:45:38;15.00;99.90
33328;DHT22;19692;52.998;9.116;2023-07-31T04:48:04;15.10;99.90
33328;DHT22;19692;52.998;9.116;2023-07-31T04:50:30;15.10;99.90
33328;DHT22;19692;52.998;9.116;2023-07-31T04:52:56;15.10;99.90
33328;DHT22;19692;52.998;9.116;2023-07-31T04:55:22;15.20;99.90
33328;DHT22;19692;52.998;9.116;2023-07-31T04:57:47;15.20;99.90
33328;DHT22;19692;52.998;9.116;2023-07-31T05:00:13;15.10;99.90
33328;DHT22;19692;52.998;9.116;2023-07-31T05:02:39;15.20;99.90
33328;DHT22;19692;52.998;9.116;2023-07-31T05:05:05;15.10;99.90
33328;DHT22;19692;52.998;9.116;2023-07-31T05:07:31;15.10;99.90
33328;DHT22;19692;52.998;9.116;2023-07-31T05:09:56;15.20;99.90
33328;DHT22;19692;52.998;9.116;2023-07-31T05:12:22;15.10;99.90
33328;DHT22;19692;52.998;9.116;2023-07-31T05:14:48;15.10;99.90
33328;DHT22;19692;52.998;9.116;2023-07-31T05:17:14;15.10;99.90
33328;DHT22;19692;52.998;9.116;2023-07-31T05:19:40;15.00;99.90
33328;DHT22;19692;52.998;9.116;2023-07-31T05:22:05;15.00;99.90
33328;DHT22;19692;52.998;9.116;2023-07-31T05:24:31;15.10;99.90
33328;DHT22;19692;52.998;9.116;2023-07-31T05:26:57;15.10;99.90
33328;DHT22;19692;52.998;9.116;2023-07-31T05:29:23;15.00;99.90
33328;DHT22;19692;52.998;9.116;2023-07-31T05:31:48;15.10;99.90
33328;DHT22;19692;52.998;9.116;2023-07-31T05:34:14;15.00;99.90
33328;DHT22;19692;52.998;9.116;2023-07-31T05:36:40;15.10;99.90
33328;DHT22;19692;52.998;9.116;2023-07-31T05:39:06;15.00;99.90
33328;DHT22;19692;52.998;9.116;2023-07-31T05:41:35;15.10;99.90
33328;DHT22;19692;52.998;9.116;2023-07-31T05:44:00;15.10;99.90
33328;DHT22;19692;52.998;9.116;2023-07-31T05:46:26;15.10;99.90
33328;DHT22;19692;52.998;9.116;2023-07-31T05:48:52;15.10;99.90
33328;DHT22;19692;52.998;9.116;2023-07-31T05:51:18;15.10;99.90
33328;DHT22;19692;52.998;9.116;2023-07-31T05:53:43;15.10;99.90
33328;DHT22;19692;52.998;9.116;2023-07-31T05:56:09;15.10;99.90
33328;DHT22;19692;52.998;9.116;2023-07-31T05:58:35;15.00;99.90
33328;DHT22;19692;52.998;9.116;2023-07-31T06:01:00;15.10;99.90
33328;DHT22;19692;52.998;9.116;2023-07-31T06:03:26;15.00;99.90
33328;DHT22;19692;52.998;9.116;2023-07-31T06:05:52;15.10;99.90
33328;DHT22;19692;52.998;9.116;2023-07-31T06:08:18;15.10;99.90
33328;DHT22;19692;52.998;9.116;2023-07-31T06:10:43;15.10;99.90
33328;DHT22;19692;52.998;9.116;2023-07-31T06:13:09;15.20;99.90
33328;DHT22;19692;52.998;9.116;2023-07-31T06:15:35;15.10;99.90
33328;DHT22;19692;52.998;9.116;2023-07-31T06:18:01;15.20;99.90
33328;DHT22;19692;52.998;9.116;2023-07-31T06:20:27;15.10;99.90
33328;DHT22;19692;52.998;9.116;2023-07-31T06:22:53;15.10;99.90
33328;DHT22;19692;52.998;9.116;2023-07-31T06:25:19;15.20;99.90
33328;DHT22;19692;52.998;9.116;2023-07-31T06:27:45;15.20;99.90
33328;DHT22;19692;52.998;9.116;2023-07-31T06:30:11;15.20;99.90
33328;DHT22;19692;52.998;9.116;2023-07-31T06:32:37;15.20;99.90
33328;DHT22;19692;52.998;9.116;2023-07-31T06:35:03;15.20;99.90
33328;DHT22;19692;52.998;9.116;2023-07-31T06:37:29;15.20;99.90
33328;DHT22;19692;52.998;9.116;2023-07-31T06:39:55;15.20;99.90
33328;DHT22;19692;52.998;9.116;2023-07-31T06:42:20;15.30;99.90
33328;DHT22;19692;52.998;9.116;2023-07-31T06:44:46;15.30;99.90
33328;DHT22;19692;52.998;9.116;2023-07-31T06:47:12;15.40;99.90
33328;DHT22;19692;52.998;9.116;2023-07-31T06:49:38;15.40;99.90
33328;DHT22;19692;52.998;9.116;2023-07-31T06:52:04;15.30;99.90
33328;DHT22;19692;52.998;9.116;2023-07-31T06:54:29;15.40;99.90
33328;DHT22;19692;52.998;9.116;2023-07-31T06:56:55;15.40;99.90
33328;DHT22;19692;52.998;9.116;2023-07-31T06:59:21;15.50;99.90
33328;DHT22;19692;52.998;9.116;2023-07-31T07:01:47;15.50;99.90
33328;DHT22;19692;52.998;9.116;2023-07-31T07:04:13;15.50;99.90
33328;DHT22;19692;52.998;9.116;2023-07-31T07:06:40;15.50;99.90
33328;DHT22;19692;52.998;9.116;2023-07-31T07:09:05;15.60;99.90
33328;DHT22;19692;52.998;9.116;2023-07-31T07:11:31;15.50;99.90
33328;DHT22;19692;52.998;9.116;2023-07-31T07:13:57;15.50;99.90
33328;DHT22;19692;52.998;9.116;2023-07-31T07:16:23;15.50;99.90
33328;DHT22;19692;52.998;9.116;2023-07-31T07:18:48;15.60;99.90
33328;DHT22;19692;52.998;9.116;2023-07-31T07:21:14;15.60;99.90
33328;DHT22;19692;52.998;9.116;2023-07-31T07:23:42;15.70;99.90
33328;DHT22;19692;52.998;9.116;2023-07-31T07:26:08;15.60;99.90
33328;DHT22;19692;52.998;9.116;2023-07-31T07:28:33;15.70;99.90
33328;DHT22;19692;52.998;9.116;2023-07-31T07:30:59;15.70;99.90
33328;DHT22;19692;52.998;9.116;2023-07-31T07:33:25;15.70;99.90
33328;DHT22;19692;52.998;9.116;2023-07-31T07:35:51;15.80;99.90
33328;DHT22;19692;52.998;9.116;2023-07-31T07:38:17;15.80;99.90
33328;DHT22;19692;52.998;9.116;2023-07-31T07:40:44;15.70;99.90
33328;DHT22;19692;52.998;9.116;2023-07-31T07:43:12;15.80;99.90
33328;DHT22;19692;52.998;9.116;2023-07-31T07:45:38;15.80;99.90
33328;DHT22;19692;52.998;9.116;2023-07-31T07:48:03;15.90;99.90
33328;DHT22;19692;52.998;9.116;2023-07-31T07:50:29;16.00;99.90
33328;DHT22;19692;52.998;9.116;2023-07-31T07:52:55;16.00;99.90
33328;DHT22;19692;52.998;9.116;2023-07-31T07:55:21;16.00;99.90
33328;DHT22;19692;52.998;9.116;2023-07-31T07:57:46;16.10;99.90
33328;DHT22;19692;52.998;9.116;2023-07-31T08:00:13;16.10;99.90
33328;DHT22;19692;52.998;9.116;2023-07-31T08:02:38;16.10;99.90
33328;DHT22;19692;52.998;9.116;2023-07-31T08:05:04;16.20;99.90
33328;DHT22;19692;52.998;9.116;2023-07-31T08:07:30;16.20;99.90
33328;DHT22;19692;52.998;9.116;2023-07-31T08:09:56;16.30;99.90
33328;DHT22;19692;52.998;9.116;2023-07-31T08:12:22;16.20;99.90
33328;DHT22;19692;52.998;9.116;2023-07-31T08:14:47;16.20;99.90
33328;DHT22;19692;52.998;9.116;2023-07-31T08:17:13;16.20;99.90
33328;DHT22;19692;52.998;9.116;2023-07-31T08:19:39;16.20;99.90
33328;DHT22;19692;52.998;9.116;2023-07-31T08:22:05;16.20;99.90
33328;DHT22;19692;52.998;9.116;2023-07-31T08:24:31;16.30;99.90
33328;DHT22;19692;52.998;9.116;2023-07-31T08:26:57;16.30;99.90
33328;DHT22;19692;52.998;9.116;2023-07-31T08:29:22;16.40;99.90
33328;DHT22;19692;52.998;9.116;2023-07-31T08:31:49;16.40;99.90
33328;DHT22;19692;52.998;9.116;2023-07-31T08:34:15;16.40;99.90
33328;DHT22;19692;52.998;9.116;2023-07-31T08:36:40;16.50;99.90
33328;DHT22;19692;52.998;9.116;2023-07-31T08:39:06;16.40;99.90
33328;DHT22;19692;52.998;9.116;2023-07-31T08:41:40;16.50;99.90
33328;DHT22;19692;52.998;9.116;2023-07-31T08:44:07;16.60;99.90
33328;DHT22;19692;52.998;9.116;2023-07-31T08:46:33;16.70;99.90
33328;DHT22;19692;52.998;9.116;2023-07-31T08:48:59;16.80;99.90
33328;DHT22;19692;52.998;9.116;2023-07-31T08:51:26;16.90;99.90
33328;DHT22;19692;52.998;9.116;2023-07-31T08:53:53;16.90;99.90
33328;DHT22;19692;52.998;9.116;2023-07-31T08:56:19;17.00;99.90
33328;DHT22;19692;52.998;9.116;2023-07-31T08:58:46;17.00;99.90
33328;DHT22;19692;52.998;9.116;2023-07-31T09:01:13;17.10;99.90
33328;DHT22;19692;52.998;9.116;2023-07-31T09:03:39;17.10;99.90
33328;DHT22;19692;52.998;9.116;2023-07-31T09:06:06;17.10;99.90
33328;DHT22;19692;52.998;9.116;2023-07-31T09:08:33;17.20;99.90
33328;DHT22;19692;52.998;9.116;2023-07-31T09:11:00;17.30;99.90
33328;DHT22;19692;52.998;9.116;2023-07-31T09:13:30;17.30;99.90
33328;DHT22;19692;52.998;9.116;2023-07-31T09:15:58;17.40;99.90
33328;DHT22;19692;52.998;9.116;2023-07-31T09:18:24;17.40;99.90
33328;DHT22;19692;52.998;9.116;2023-07-31T09:21:03;17.50;99.90
33328;DHT22;19692;52.998;9.116;2023-07-31T09:23:43;17.60;99.90
33328;DHT22;19692;52.998;9.116;2023-07-31T09:26:10;17.70;99.90
33328;DHT22;19692;52.998;9.116;2023-07-31T09:28:37;17.70;99.90
33328;DHT22;19692;52.998;9.116;2023-07-31T09:31:02;17.70;99.90
33328;DHT22;19692;52.998;9.116;2023-07-31T09:33:28;17.70;99.90
33328;DHT22;19692;52.998;9.116;2023-07-31T09:35:54;17.70;99.90
33328;DHT22;19692;52.998;9.116;2023-07-31T09:38:20;17.60;99.90
33328;DHT22;19692;52.998;9.116;2023-07-31T09:40:47;17.50;99.90
33328;DHT22;19692;52.998;9.116;2023-07-31T09:43:20;17.50;99.90
33328;DHT22;19692;52.998;9.116;2023-07-31T09:45:47;17.40;99.90
33328;DHT22;19692;52.998;9.116;2023-07-31T09:48:17;17.30;99.90
33328;DHT22;19692;52.998;9.116;2023-07-31T09:50:53;17.30;99.90
33328;DHT22;19692;52.998;9.116;2023-07-31T09:53:19;17.40;99.90
33328;DHT22;19692;52.998;9.116;2023-07-31T09:55:45;17.30;99.90
33328;DHT22;19692;52.998;9.116;2023-07-31T09:58:12;17.30;99.90
33328;DHT22;19692;52.998;9.116;2023-07-31T10:00:38;17.30;99.90
33328;DHT22;19692;52.998;9.116;2023-07-31T10:03:06;17.30;99.90
33328;DHT22;19692;52.998;9.116;2023-07-31T10:05:53;17.30;99.90
33328;DHT22;19692;52.998;9.116;2023-07-31T10:08:23;17.30;99.90
33328;DHT22;19692;52.998;9.116;2023-07-31T10:10:58;17.30;99.90
33328;DHT22;19692;52.998;9.116;2023-07-31T10:13:25;17.30;99.90
33328;DHT22;19692;52.998;9.116;2023-07-31T10:15:53;17.30;99.90
33328;DHT22;19692;52.998;9.116;2023-07-31T10:18:20;17.30;99.90
33328;DHT22;19692;52.998;9.116;2023-07-31T10:20:47;17.30;99.90
33328;DHT22;19692;52.998;9.116;2023-07-31T10:23:12;17.20;99.90
33328;DHT22;19692;52.998;9.116;2023-07-31T10:25:39;17.30;99.90
33328;DHT22;19692;52.998;9.116;2023-07-31T10:28:08;17.30;99.90
33328;DHT22;19692;52.998;9.116;2023-07-31T10:30:35;17.40;99.90
33328;DHT22;19692;52.998;9.116;2023-07-31T10:33:03;17.40;99.90
33328;DHT22;19692;52.998;9.116;2023-07-31T10:35:30;17.40;99.90
33328;DHT22;19692;52.998;9.116;2023-07-31T10:37:55;17.40;99.90
33328;DHT22;19692;52.998;9.116;2023-07-31T10:40:34;17.50;99.90
33328;DHT22;19692;52.998;9.116;2023-07-31T10:43:01;17.50;99.90
33328;DHT22;19692;52.998;9.116;2023-07-31T10:45:37;17.60;99.90
33328;DHT22;19692;52.998;9.116;2023-07-31T10:51:00;17.60;99.90
33328;DHT22;19692;52.998;9.116;2023-07-31T10:53:31;17.60;99.90
33328;DHT22;19692;52.998;9.116;2023-07-31T10:55:59;17.60;99.90
33328;DHT22;19692;52.998;9.116;2023-07-31T10:58:25;17.60;99.90
33328;DHT22;19692;52.998;9.116;2023-07-31T11:00:56;17.60;99.90
33328;DHT22;19692;52.998;9.116;2023-07-31T11:03:26;17.60;99.90
33328;DHT22;19692;52.998;9.116;2023-07-31T11:06:06;17.60;99.90
33328;DHT22;19692;52.998;9.116;2023-07-31T11:08:33;17.60;99.90
33328;DHT22;19692;52.998;9.116;2023-07-31T11:13:39;17.70;99.90
33328;DHT22;19692;52.998;9.116;2023-07-31T11:16:05;17.80;99.90
33328;DHT22;19692;52.998;9.116;2023-07-31T11:18:31;17.90;99.90
33328;DHT22;19692;52.998;9.116;2023-07-31T11:20:57;17.90;99.90
33328;DHT22;19692;52.998;9.116;2023-07-31T11:23:23;18.00;99.90
33328;DHT22;19692;52.998;9.116;2023-07-31T11:25:50;18.10;99.90
33328;DHT22;19692;52.998;9.116;2023-07-31T11:28:17;18.20;99.90
33328;DHT22;19692;52.998;9.116;2023-07-31T11:30:45;18.00;99.90
33328;DHT22;19692;52.998;9.116;2023-07-31T11:33:13;18.20;99.90
33328;DHT22;19692;52.998;9.116;2023-07-31T11:35:48;18.10;99.90
33328;DHT22;19692;52.998;9.116;2023-07-31T11:38:32;18.20;99.90
33328;DHT22;19692;52.998;9.116;2023-07-31T11:41:02;18.20;99.90
33328;DHT22;19692;52.998;9.116;2023-07-31T11:43:30;18.20;99.90
33328;DHT22;19692;52.998;9.116;2023-07-31T11:45:58;18.20;99.90
33328;DHT22;19692;52.998;9.116;2023-07-31T11:48:26;18.20;99.90
33328;DHT22;19692;52.998;9.116;2023-07-31T11:50:54;18.20;99.90
33328;DHT22;19692;52.998;9.116;2023-07-31T11:53:49;18.10;99.90
33328;DHT22;19692;52.998;9.116;2023-07-31T11:56:18;17.90;99.90
33328;DHT22;19692;52.998;9.116;2023-07-31T11:58:51;17.90;99.90
33328;DHT22;19692;52.998;9.116;2023-07-31T12:01:20;18.00;99.90
33328;DHT22;19692;52.998;9.116;2023-07-31T12:03:47;18.10;99.90
33328;DHT22;19692;52.998;9.116;2023-07-31T12:06:13;18.10;99.90
33328;DHT22;19692;52.998;9.116;2023-07-31T12:08:39;18.20;99.90
33328;DHT22;19692;52.998;9.116;2023-07-31T12:11:07;18.30;99.90
33328;DHT22;19692;52.998;9.116;2023-07-31T12:13:35;18.30;99.90
33328;DHT22;19692;52.998;9.116;2023-07-31T12:16:02;18.20;99.90
33328;DHT22;19692;52.998;9.116;2023-07-31T12:18:33;18.40;99.90
33328;DHT22;19692;52.998;9.116;2023-07-31T12:21:02;18.40;99.90
33328;DHT22;19692;52.998;9.116;2023-07-31T12:23:36;18.40;99.90
33328;DHT22;19692;52.998;9.116;2023-07-31T12:26:09;18.40;99.90
33328;DHT22;19692;52.998;9.116;2023-07-31T12:28:39;18.40;99.90
33328;DHT22;19692;52.998;9.116;2023-07-31T12:31:12;18.30;99.90
33328;DHT22;19692;52.998;9.116;2023-07-31T12:33:40;18.10;99.90
33328;DHT22;19692;52.998;9.116;2023-07-31T12:36:11;18.10;99.90
33328;DHT22;19692;52.998;9.116;2023-07-31T12:38:38;18.10;99.90
33328;DHT22;19692;52.998;9.116;2023-07-31T12:41:04;18.10;99.90
33328;DHT22;19692;52.998;9.116;2023-07-31T12:43:35;18.10;99.90
33328;DHT22;19692;52.998;9.116;2023-07-31T12:46:02;18.20;99.90
33328;DHT22;19692;52.998;9.116;2023-07-31T12:48:28;18.30;99.90
33328;DHT22;19692;52.998;9.116;2023-07-31T12:50:53;18.30;99.90
33328;DHT22;19692;52.998;9.116;2023-07-31T12:53:19;18.30;99.90
33328;DHT22;19692;52.998;9.116;2023-07-31T12:55:45;18.30;99.90
33328;DHT22;19692;52.998;9.116;2023-07-31T12:58:10;18.30;99.90
33328;DHT22;19692;52.998;9.116;2023-07-31T13:00:36;18.30;99.90
33328;DHT22;19692;52.998;9.116;2023-07-31T13:03:03;18.30;99.90
33328;DHT22;19692;52.998;9.116;2023-07-31T13:05:29;18.40;99.90
33328;DHT22;19692;52.998;9.116;2023-07-31T13:07:54;18.40;99.90
33328;DHT22;19692;52.998;9.116;2023-07-31T13:10:21;18.40;99.90
33328;DHT22;19692;52.998;9.116;2023-07-31T13:12:48;18.40;99.90
33328;DHT22;19692;52.998;9.116;2023-07-31T13:15:14;18.50;99.90
33328;DHT22;19692;52.998;9.116;2023-07-31T13:17:39;18.40;99.90
33328;DHT22;19692;52.998;9.116;2023-07-31T13:20:06;18.50;99.90
33328;DHT22;19692;52.998;9.116;2023-07-31T13:22:32;18.50;99.90
33328;DHT22;19692;52.998;9.116;2023-07-31T13:24:58;18.50;99.90
33328;DHT22;19692;52.998;9.116;2023-07-31T13:27:24;18.40;99.90
33328;DHT22;19692;52.998;9.116;2023-07-31T13:29:53;18.40;99.90
33328;DHT22;19692;52.998;9.116;2023-07-31T13:32:20;18.30;99.90
33328;DHT22;19692;52.998;9.116;2023-07-31T13:34:47;18.40;99.90
33328;DHT22;19692;52.998;9.116;2023-07-31T13:37:13;18.40;99.90
33328;DHT22;19692;52.998;9.116;2023-07-31T13:39:40;18.50;99.90
33328;DHT22;19692;52.998;9.116;2023-07-31T13:42:07;18.60;99.90
33328;DHT22;19692;52.998;9.116;2023-07-31T13:44:38;18.60;99.90
33328;DHT22;19692;52.998;9.116;2023-07-31T13:47:04;18.50;99.90
33328;DHT22;19692;52.998;9.116;2023-07-31T13:49:30;18.50;99.90
33328;DHT22;19692;52.998;9.116;2023-07-31T13:51:56;18.50;99.90
33328;DHT22;19692;52.998;9.116;2023-07-31T13:54:23;18.50;99.90
33328;DHT22;19692;52.998;9.116;2023-07-31T13:56:49;18.40;99.90
33328;DHT22;19692;52.998;9.116;2023-07-31T13:59:15;18.40;99.90
33328;DHT22;19692;52.998;9.116;2023-07-31T14:01:43;18.40;99.90
33328;DHT22;19692;52.998;9.116;2023-07-31T14:04:09;18.50;99.90
33328;DHT22;19692;52.998;9.116;2023-07-31T14:06:35;18.40;99.90
33328;DHT22;19692;52.998;9.116;2023-07-31T14:09:00;18.30;99.90
33328;DHT22;19692;52.998;9.116;2023-07-31T14:11:27;18.40;99.90
33328;DHT22;19692;52.998;9.116;2023-07-31T14:13:52;18.30;99.90
33328;DHT22;19692;52.998;9.116;2023-07-31T14:16:18;18.40;99.90
33328;DHT22;19692;52.998;9.116;2023-07-31T14:18:44;18.30;99.90
33328;DHT22;19692;52.998;9.116;2023-07-31T14:21:11;18.30;99.90
33328;DHT22;19692;52.998;9.116;2023-07-31T14:23:37;18.30;99.90
33328;DHT22;19692;52.998;9.116;2023-07-31T14:26:03;18.30;99.90
33328;DHT22;19692;52.998;9.116;2023-07-31T14:28:29;18.30;99.90
33328;DHT22;19692;52.998;9.116;2023-07-31T14:30:55;18.30;99.90
33328;DHT22;19692;52.998;9.116;2023-07-31T14:33:21;18.30;99.90
33328;DHT22;19692;52.998;9.116;2023-07-31T14:35:46;18.40;99.90
33328;DHT22;19692;52.998;9.116;2023-07-31T14:38:12;18.40;99.90
33328;DHT22;19692;52.998;9.116;2023-07-31T14:40:38;18.40;99.90
33328;DHT22;19692;52.998;9.116;2023-07-31T14:43:04;18.50;99.90
33328;DHT22;19692;52.998;9.116;2023-07-31T14:45:30;18.50;99.90
33328;DHT22;19692;52.998;9.116;2023-07-31T14:47:55;18.60;99.90
33328;DHT22;19692;52.998;9.116;2023-07-31T14:50:21;18.80;99.90
33328;DHT22;19692;52.998;9.116;2023-07-31T14:52:49;18.90;99.90
33328;DHT22;19692;52.998;9.116;2023-07-31T14:55:15;18.90;99.90
33328;DHT22;19692;52.998;9.116;2023-07-31T14:57:40;19.00;99.90
33328;DHT22;19692;52.998;9.116;2023-07-31T15:00:07;18.90;99.90
33328;DHT22;19692;52.998;9.116;2023-07-31T15:02:42;19.00;99.90
33328;DHT22;19692;52.998;9.116;2023-07-31T15:05:11;19.00;99.90
33328;DHT22;19692;52.998;9.116;2023-07-31T15:07:37;19.10;99.90
33328;DHT22;19692;52.998;9.116;2023-07-31T15:10:04;19.00;99.90
33328;DHT22;19692;52.998;9.116;2023-07-31T15:12:31;19.10;99.90
33328;DHT22;19692;52.998;9.116;2023-07-31T15:14:56;19.00;99.90
33328;DHT22;19692;52.998;9.116;2023-07-31T15:17:22;19.00;99.90
33328;DHT22;19692;52.998;9.116;2023-07-31T15:19:48;18.90;99.90
33328;DHT22;19692;52.998;9.116;2023-07-31T15:22:14;18.80;99.90
33328;DHT22;19692;52.998;9.116;2023-07-31T15:24:40;18.80;99.90
33328;DHT22;19692;52.998;9.116;2023-07-31T15:27:06;18.80;99.90
33328;DHT22;19692;52.998;9.116;2023-07-31T15:29:33;18.80;99.90
33328;DHT22;19692;52.998;9.116;2023-07-31T15:32:03;18.70;99.90
33328;DHT22;19692;52.998;9.116;2023-07-31T15:34:30;18.70;99.90
33328;DHT22;19692;52.998;9.116;2023-07-31T15:36:56;18.60;99.90
33328;DHT22;19692;52.998;9.116;2023-07-31T15:39:22;18.50;99.90